sensor_id;sensor_type;location;lat;lon;timestamp;temperature;humidity
9762;DHT22;4920;49.594;11.022;2022-11-20T00:01:12;1.20;1.00
9762;DHT22;4920;49.594;11.022;2022-11-20T00:03:40;1.30;1.00
9762;DHT22;4920;49.594;11.022;2022-11-20T00:06:11;1.30;1.00
9762;DHT22;4920;49.594;11.022;2022-11-20T00:08:40;1.40;1.00
9762;DHT22;4920;49.594;11.022;2022-11-20T00:11:10;1.40;1.00
9762;DHT22;4920;49.594;11.022;2022-11-20T00:13:43;1.40;1.00
9762;DHT22;4920;49.594;11.022;2022-11-20T00:16:13;1.50;1.00
9762;DHT22;4920;49.594;11.022;2022-11-20T00:18:42;1.50;1.00
9762;DHT22;4920;49.594;11.022;2022-11-20T00:21:12;1.50;1.00
9762;DHT22;4920;49.594;11.022;2022-11-20T00:23:41;1.50;1.00
9762;DHT22;4920;49.594;11.022;2022-11-20T00:26:11;1.50;1.00
9762;DHT22;4920;49.594;11.022;2022-11-20T00:28:40;1.50;1.00
9762;DHT22;4920;49.594;11.022;2022-11-20T00:31:12;1.60;1.00
9762;DHT22;4920;49.594;11.022;2022-11-20T00:33:41;1.50;1.00
9762;DHT22;4920;49.594;11.022;2022-11-20T00:36:11;1.60;1.00
9762;DHT22;4920;49.594;11.022;2022-11-20T00:38:40;1.60;1.00
9762;DHT22;4920;49.594;11.022;2022-11-20T00:41:10;1.60;1.00
9762;DHT22;4920;49.594;11.022;2022-11-20T00:43:38;1.50;1.00
9762;DHT22;4920;49.594;11.022;2022-11-20T00:46:12;1.60;1.00
9762;DHT22;4920;49.594;11.022;2022-11-20T00:48:41;1.60;1.00
9762;DHT22;4920;49.594;11.022;2022-11-20T00:51:11;1.60;1.00
9762;DHT22;4920;49.594;11.022;2022-11-20T00:53:40;1.60;1.00
9762;DHT22;4920;49.594;11.022;2022-11-20T00:56:11;1.60;1.00
9762;DHT22;4920;49.594;11.022;2022-11-20T00:58:40;1.60;1.00
9762;DHT22;4920;49.594;11.022;2022-11-20T01:01:12;1.60;1.00
9762;DHT22;4920;49.594;11.022;2022-11-20T01:03:43;1.60;1.00
9762;DHT22;4920;49.594;11.022;2022-11-20T01:06:14;1.60;1.00
9762;DHT22;4920;49.594;11.022;2022-11-20T01:08:43;1.60;1.00
9762;DHT22;4920;49.594;11.022;2022-11-20T01:11:13;1.60;1.00
9762;DHT22;4920;49.594;11.022;2022-11-20T01:13:42;1.50;1.00
9762;DHT22;4920;49.594;11.022;2022-11-20T01:16:14;1.60;1.00
9762;DHT22;4920;49.594;11.022;2022-11-20T01:18:45;1.60;1.00
9762;DHT22;4920;49.594;11.022;2022-11-20T01:21:15;1.60;1.00
9762;DHT22;4920;49.594;11.022;2022-11-20T01:23:44;1.60;1.00
9762;DHT22;4920;49.594;11.022;2022-11-20T01:26:17;1.60;1.00
9762;DHT22;4920;49.594;11.022;2022-11-20T01:28:45;1.70;1.00
9762;DHT22;4920;49.594;11.022;2022-11-20T01:31:17;1.60;1.00
9762;DHT22;4920;49.594;11.022;2022-11-20T01:33:47;1.70;1.00
9762;DHT22;4920;49.594;11.022;2022-11-20T01:36:17;1.70;1.00
9762;DHT22;4920;49.594;11.022;2022-11-20T01:38:45;1.70;1.00
9762;DHT22;4920;49.594;11.022;2022-11-20T01:41:15;1.70;1.00
9762;DHT22;4920;49.594;11.022;2022-11-20T01:44:04;1.70;1.00
9762;DHT22;4920;49.594;11.022;2022-11-20T01:46:34;1.70;1.00
9762;DHT22;4920;49.594;11.022;2022-11-20T01:49:08;1.80;1.00
9762;DHT22;4920;49.594;11.022;2022-11-20T01:51:42;1.70;1.00
9762;DHT22;4920;49.594;11.022;2022-11-20T01:54:14;1.70;1.00
9762;DHT22;4920;49.594;11.022;2022-11-20T01:56:44;1.70;1.00
9762;DHT22;4920;49.594;11.022;2022-11-20T01:59:15;1.70;1.00
9762;DHT22;4920;49.594;11.022;2022-11-20T02:01:46;1.70;1.00
9762;DHT22;4920;49.594;11.022;2022-11-20T02:04:15;1.80;1.00
9762;DHT22;4920;49.594;11.022;2022-11-20T02:06:47;1.80;1.00
9762;DHT22;4920;49.594;11.022;2022-11-20T02:09:16;1.80;1.00
9762;DHT22;4920;49.594;11.022;2022-11-20T02:11:46;1.70;1.00
9762;DHT22;4920;49.594;11.022;2022-11-20T02:14:14;1.70;1.00
9762;DHT22;4920;49.594;11.022;2022-11-20T02:16:47;1.70;1.00
9762;DHT22;4920;49.594;11.022;2022-11-20T02:19:22;1.70;1.00
9762;DHT22;4920;49.594;11.022;2022-11-20T02:21:59;1.70;1.00
9762;DHT22;4920;49.594;11.022;2022-11-20T02:24:29;1.60;1.00
9762;DHT22;4920;49.594;11.022;2022-11-20T02:27:00;1.60;1.00
9762;DHT22;4920;49.594;11.022;2022-11-20T02:29:33;1.60;1.00
9762;DHT22;4920;49.594;11.022;2022-11-20T02:32:03;1.60;1.00
9762;DHT22;4920;49.594;11.022;2022-11-20T02:34:32;1.60;1.00
9762;DHT22;4920;49.594;11.022;2022-11-20T02:37:00;1.60;1.00
9762;DHT22;4920;49.594;11.022;2022-11-20T02:39:30;1.60;1.00
9762;DHT22;4920;49.594;11.022;2022-11-20T02:42:00;1.70;1.00
9762;DHT22;4920;49.594;11.022;2022-11-20T02:44:29;1.70;1.00
9762;DHT22;4920;49.594;11.022;2022-11-20T02:46:57;1.70;1.00
9762;DHT22;4920;49.594;11.022;2022-11-20T02:49:25;1.70;1.00
9762;DHT22;4920;49.594;11.022;2022-11-20T02:51:53;1.70;1.00
9762;DHT22;4920;49.594;11.022;2022-11-20T02:54:22;1.70;1.00
9762;DHT22;4920;49.594;11.022;2022-11-20T02:56:51;1.60;1.00
9762;DHT22;4920;49.594;11.022;2022-11-20T02:59:20;1.60;1.00
9762;DHT22;4920;49.594;11.022;2022-11-20T03:01:48;1.60;1.00
9762;DHT22;4920;49.594;11.022;2022-11-20T03:04:17;1.50;1.00
9762;DHT22;4920;49.594;11.022;2022-11-20T03:06:45;1.50;1.00
9762;DHT22;4920;49.594;11.022;2022-11-20T03:09:13;1.50;1.00
9762;DHT22;4920;49.594;11.022;2022-11-20T03:11:42;1.40;1.00
9762;DHT22;4920;49.594;11.022;2022-11-20T03:14:11;1.40;1.00
9762;DHT22;4920;49.594;11.022;2022-11-20T03:16:40;1.40;1.00
9762;DHT22;4920;49.594;11.022;2022-11-20T03:19:08;1.40;1.00
9762;DHT22;4920;49.594;11.022;2022-11-20T03:21:36;1.50;1.00
9762;DHT22;4920;49.594;11.022;2022-11-20T03:24:05;1.50;1.00
9762;DHT22;4920;49.594;11.022;2022-11-20T03:26:34;1.60;1.00
9762;DHT22;4920;49.594;11.022;2022-11-20T03:29:04;1.60;1.00
9762;DHT22;4920;49.594;11.022;2022-11-20T03:31:35;1.60;1.00
9762;DHT22;4920;49.594;11.022;2022-11-20T03:34:04;1.60;1.00
9762;DHT22;4920;49.594;11.022;2022-11-20T03:36:32;1.60;1.00
9762;DHT22;4920;49.594;11.022;2022-11-20T03:39:01;1.50;1.00
9762;DHT22;4920;49.594;11.022;2022-11-20T03:41:34;1.50;1.00
9762;DHT22;4920;49.594;11.022;2022-11-20T03:44:04;1.50;1.00
9762;DHT22;4920;49.594;11.022;2022-11-20T03:46:34;1.50;1.00
9762;DHT22;4920;49.594;11.022;2022-11-20T03:49:03;1.50;1.00
9762;DHT22;4920;49.594;11.022;2022-11-20T03:51:33;1.50;1.00
9762;DHT22;4920;49.594;11.022;2022-11-20T03:54:04;1.50;1.00
9762;DHT22;4920;49.594;11.022;2022-11-20T03:56:34;1.50;1.00
9762;DHT22;4920;49.594;11.022;2022-11-20T03:59:03;1.50;1.00
9762;DHT22;4920;49.594;11.022;2022-11-20T04:01:35;1.50;1.00
9762;DHT22;4920;49.594;11.022;2022-11-20T04:04:04;1.50;1.00
9762;DHT22;4920;49.594;11.022;2022-11-20T04:06:35;1.50;1.00
9762;DHT22;4920;49.594;11.022;2022-11-20T04:09:04;1.50;1.00
9762;DHT22;4920;49.594;11.022;2022-11-20T04:11:35;1.50;1.00
9762;DHT22;4920;49.594;11.022;2022-11-20T04:14:06;1.50;1.00
9762;DHT22;4920;49.594;11.022;2022-11-20T04:16:36;1.50;1.00
9762;DHT22;4920;49.594;11.022;2022-11-20T04:19:08;1.50;1.00
9762;DHT22;4920;49.594;11.022;2022-11-20T04:21:37;1.40;1.00
9762;DHT22;4920;49.594;11.022;2022-11-20T04:24:06;1.40;1.00
9762;DHT22;4920;49.594;11.022;2022-11-20T04:26:34;1.40;1.00
9762;DHT22;4920;49.594;11.022;2022-11-20T04:29:03;1.40;1.00
9762;DHT22;4920;49.594;11.022;2022-11-20T04:31:33;1.40;1.00
9762;DHT22;4920;49.594;11.022;2022-11-20T04:34:05;1.40;1.00
9762;DHT22;4920;49.594;11.022;2022-11-20T04:36:34;1.40;1.00
9762;DHT22;4920;49.594;11.022;2022-11-20T04:39:05;1.40;1.00
9762;DHT22;4920;49.594;11.022;2022-11-20T04:41:35;1.40;1.00
9762;DHT22;4920;49.594;11.022;2022-11-20T04:44:05;1.40;1.00
9762;DHT22;4920;49.594;11.022;2022-11-20T04:46:35;1.50;1.00
9762;DHT22;4920;49.594;11.022;2022-11-20T04:49:06;1.50;1.00
9762;DHT22;4920;49.594;11.022;2022-11-20T04:51:34;1.50;1.00
9762;DHT22;4920;49.594;11.022;2022-11-20T04:54:03;1.50;1.00
9762;DHT22;4920;49.594;11.022;2022-11-20T04:56:31;1.50;1.00
9762;DHT22;4920;49.594;11.022;2022-11-20T04:59:00;1.50;1.00
9762;DHT22;4920;49.594;11.022;2022-11-20T05:01:29;1.50;1.00
9762;DHT22;4920;49.594;11.022;2022-11-20T05:03:57;1.50;1.00
9762;DHT22;4920;49.594;11.022;2022-11-20T05:06:27;1.50;1.00
9762;DHT22;4920;49.594;11.022;2022-11-20T05:08:56;1.60;1.00
9762;DHT22;4920;49.594;11.022;2022-11-20T05:11:24;1.60;1.00
9762;DHT22;4920;49.594;11.022;2022-11-20T05:13:58;1.50;1.00
9762;DHT22;4920;49.594;11.022;2022-11-20T05:16:26;1.60;2.50
9762;DHT22;4920;49.594;11.022;2022-11-20T05:18:55;1.50;7.20
9762;DHT22;4920;49.594;11.022;2022-11-20T05:21:23;1.60;9.50
9762;DHT22;4920;49.594;11.022;2022-11-20T05:23:53;1.60;13.20
9762;DHT22;4920;49.594;11.022;2022-11-20T05:26:23;1.60;16.40
9762;DHT22;4920;49.594;11.022;2022-11-20T05:28:51;1.60;17.80
9762;DHT22;4920;49.594;11.022;2022-11-20T05:31:21;1.60;18.50
9762;DHT22;4920;49.594;11.022;2022-11-20T05:33:54;1.60;16.70
9762;DHT22;4920;49.594;11.022;2022-11-20T05:36:23;1.70;17.80
9762;DHT22;4920;49.594;11.022;2022-11-20T05:38:53;1.70;17.10
9762;DHT22;4920;49.594;11.022;2022-11-20T05:41:27;1.70;13.60
9762;DHT22;4920;49.594;11.022;2022-11-20T05:43:56;1.70;13.80
9762;DHT22;4920;49.594;11.022;2022-11-20T05:46:25;1.70;15.50
9762;DHT22;4920;49.594;11.022;2022-11-20T05:48:55;1.70;16.30
9762;DHT22;4920;49.594;11.022;2022-11-20T05:51:25;1.70;8.40
9762;DHT22;4920;49.594;11.022;2022-11-20T05:53:56;1.70;10.10
9762;DHT22;4920;49.594;11.022;2022-11-20T05:56:24;1.70;14.00
9762;DHT22;4920;49.594;11.022;2022-11-20T05:58:52;1.70;15.40
9762;DHT22;4920;49.594;11.022;2022-11-20T06:01:22;1.70;12.50
9762;DHT22;4920;49.594;11.022;2022-11-20T06:03:52;1.70;13.30
9762;DHT22;4920;49.594;11.022;2022-11-20T06:06:20;1.70;13.40
9762;DHT22;4920;49.594;11.022;2022-11-20T06:08:48;1.70;13.30
9762;DHT22;4920;49.594;11.022;2022-11-20T06:11:18;1.70;17.20
9762;DHT22;4920;49.594;11.022;2022-11-20T06:13:48;1.70;17.10
9762;DHT22;4920;49.594;11.022;2022-11-20T06:16:19;1.70;18.30
9762;DHT22;4920;49.594;11.022;2022-11-20T06:18:48;1.70;13.20
9762;DHT22;4920;49.594;11.022;2022-11-20T06:21:19;1.70;13.80
9762;DHT22;4920;49.594;11.022;2022-11-20T06:23:48;1.60;17.60
9762;DHT22;4920;49.594;11.022;2022-11-20T06:26:19;1.60;23.70
9762;DHT22;4920;49.594;11.022;2022-11-20T06:28:48;1.70;21.30
9762;DHT22;4920;49.594;11.022;2022-11-20T06:31:19;1.70;25.20
9762;DHT22;4920;49.594;11.022;2022-11-20T06:33:48;1.70;23.90
9762;DHT22;4920;49.594;11.022;2022-11-20T06:36:18;1.60;24.10
9762;DHT22;4920;49.594;11.022;2022-11-20T06:38:47;1.60;26.80
9762;DHT22;4920;49.594;11.022;2022-11-20T06:41:18;1.60;19.50
9762;DHT22;4920;49.594;11.022;2022-11-20T06:43:47;1.60;21.40
9762;DHT22;4920;49.594;11.022;2022-11-20T06:46:17;1.60;23.20
9762;DHT22;4920;49.594;11.022;2022-11-20T06:48:46;1.60;28.70
9762;DHT22;4920;49.594;11.022;2022-11-20T06:51:15;1.60;32.70
9762;DHT22;4920;49.594;11.022;2022-11-20T06:53:44;1.70;39.00
9762;DHT22;4920;49.594;11.022;2022-11-20T06:56:12;1.70;40.00
9762;DHT22;4920;49.594;11.022;2022-11-20T06:58:42;1.70;40.10
9762;DHT22;4920;49.594;11.022;2022-11-20T07:01:12;1.80;40.20
9762;DHT22;4920;49.594;11.022;2022-11-20T07:03:41;1.80;43.00
9762;DHT22;4920;49.594;11.022;2022-11-20T07:06:10;1.90;44.90
9762;DHT22;4920;49.594;11.022;2022-11-20T07:08:38;1.90;39.10
9762;DHT22;4920;49.594;11.022;2022-11-20T07:11:07;1.90;31.90
9762;DHT22;4920;49.594;11.022;2022-11-20T07:13:35;1.90;30.60
9762;DHT22;4920;49.594;11.022;2022-11-20T07:16:07;1.90;32.20
9762;DHT22;4920;49.594;11.022;2022-11-20T07:18:36;2.00;34.10
9762;DHT22;4920;49.594;11.022;2022-11-20T07:21:07;2.00;25.30
9762;DHT22;4920;49.594;11.022;2022-11-20T07:23:35;2.00;29.30
9762;DHT22;4920;49.594;11.022;2022-11-20T07:26:05;2.00;30.00
9762;DHT22;4920;49.594;11.022;2022-11-20T07:28:34;2.00;31.80
9762;DHT22;4920;49.594;11.022;2022-11-20T07:31:02;2.10;35.80
9762;DHT22;4920;49.594;11.022;2022-11-20T07:33:33;2.20;35.80
9762;DHT22;4920;49.594;11.022;2022-11-20T07:36:01;2.20;37.00
9762;DHT22;4920;49.594;11.022;2022-11-20T07:38:30;2.30;32.90
9762;DHT22;4920;49.594;11.022;2022-11-20T07:40:58;2.30;28.90
9762;DHT22;4920;49.594;11.022;2022-11-20T07:43:28;2.40;28.40
9762;DHT22;4920;49.594;11.022;2022-11-20T07:45:57;2.40;25.60
9762;DHT22;4920;49.594;11.022;2022-11-20T07:48:25;2.40;22.40
9762;DHT22;4920;49.594;11.022;2022-11-20T07:50:55;2.40;20.00
9762;DHT22;4920;49.594;11.022;2022-11-20T07:53:24;2.40;18.30
9762;DHT22;4920;49.594;11.022;2022-11-20T07:55:52;2.40;19.90
9762;DHT22;4920;49.594;11.022;2022-11-20T07:58:21;2.50;19.30
9762;DHT22;4920;49.594;11.022;2022-11-20T08:00:49;2.50;15.80
9762;DHT22;4920;49.594;11.022;2022-11-20T08:03:18;2.50;8.20
9762;DHT22;4920;49.594;11.022;2022-11-20T08:05:51;2.50;11.50
9762;DHT22;4920;49.594;11.022;2022-11-20T08:08:21;2.60;7.10
9762;DHT22;4920;49.594;11.022;2022-11-20T08:10:49;2.60;2.80
9762;DHT22;4920;49.594;11.022;2022-11-20T08:13:17;2.60;1.00
9762;DHT22;4920;49.594;11.022;2022-11-20T08:16:03;2.70;1.00
9762;DHT22;4920;49.594;11.022;2022-11-20T08:18:32;2.80;1.00
9762;DHT22;4920;49.594;11.022;2022-11-20T08:21:02;2.80;1.00
9762;DHT22;4920;49.594;11.022;2022-11-20T08:23:31;2.90;1.00
9762;DHT22;4920;49.594;11.022;2022-11-20T08:26:00;3.00;1.00
9762;DHT22;4920;49.594;11.022;2022-11-20T08:28:28;3.00;1.00
9762;DHT22;4920;49.594;11.022;2022-11-20T08:30:59;3.10;1.00
9762;DHT22;4920;49.594;11.022;2022-11-20T08:33:27;3.10;1.00
9762;DHT22;4920;49.594;11.022;2022-11-20T08:35:59;3.10;1.00
9762;DHT22;4920;49.594;11.022;2022-11-20T08:38:28;3.10;1.00
9762;DHT22;4920;49.594;11.022;2022-11-20T08:40:58;3.20;1.00
9762;DHT22;4920;49.594;11.022;2022-11-20T08:43:44;3.10;1.00
9762;DHT22;4920;49.594;11.022;2022-11-20T08:46:12;3.10;1.00
9762;DHT22;4920;49.594;11.022;2022-11-20T08:48:41;3.10;1.00
9762;DHT22;4920;49.594;11.022;2022-11-20T08:51:10;3.10;1.00
9762;DHT22;4920;49.594;11.022;2022-11-20T08:53:39;3.20;1.00
9762;DHT22;4920;49.594;11.022;2022-11-20T08:56:09;3.20;1.00
9762;DHT22;4920;49.594;11.022;2022-11-20T08:58:38;3.10;1.00
9762;DHT22;4920;49.594;11.022;2022-11-20T09:01:26;3.20;1.00
9762;DHT22;4920;49.594;11.022;2022-11-20T09:03:56;3.20;1.00
9762;DHT22;4920;49.594;11.022;2022-11-20T09:06:24;3.20;1.00
9762;DHT22;4920;49.594;11.022;2022-11-20T09:08:52;3.20;1.00
9762;DHT22;4920;49.594;11.022;2022-11-20T09:11:22;3.20;1.00
9762;DHT22;4920;49.594;11.022;2022-11-20T09:13:51;3.20;1.00
9762;DHT22;4920;49.594;11.022;2022-11-20T09:16:19;3.10;1.00
9762;DHT22;4920;49.594;11.022;2022-11-20T09:18:49;3.20;1.00
9762;DHT22;4920;49.594;11.022;2022-11-20T09:21:38;3.20;1.00
9762;DHT22;4920;49.594;11.022;2022-11-20T09:24:07;3.20;1.00
9762;DHT22;4920;49.594;11.022;2022-11-20T09:26:36;3.20;1.00
9762;DHT22;4920;49.594;11.022;2022-11-20T09:29:04;3.30;1.00
9762;DHT22;4920;49.594;11.022;2022-11-20T09:31:33;3.20;1.00
9762;DHT22;4920;49.594;11.022;2022-11-20T09:34:01;3.20;1.00
9762;DHT22;4920;49.594;11.022;2022-11-20T09:36:29;3.20;1.00
9762;DHT22;4920;49.594;11.022;2022-11-20T09:38:57;3.10;1.00
9762;DHT22;4920;49.594;11.022;2022-11-20T09:44:51;3.00;1.00
9762;DHT22;4920;49.594;11.022;2022-11-20T09:47:31;3.00;1.00
9762;DHT22;4920;49.594;11.022;2022-11-20T09:50:12;3.00;10.10
9762;DHT22;4920;49.594;11.022;2022-11-20T09:52:45;3.00;18.40
9762;DHT22;4920;49.594;11.022;2022-11-20T09:55:16;3.10;14.40
9762;DHT22;4920;49.594;11.022;2022-11-20T09:57:47;3.00;19.50
9762;DHT22;4920;49.594;11.022;2022-11-20T10:00:19;3.10;20.10
9762;DHT22;4920;49.594;11.022;2022-11-20T10:02:53;3.00;15.70
9762;DHT22;4920;49.594;11.022;2022-11-20T10:05:26;3.00;15.20
9762;DHT22;4920;49.594;11.022;2022-11-20T10:08:02;2.90;16.90
9762;DHT22;4920;49.594;11.022;2022-11-20T10:10:42;2.90;12.90
9762;DHT22;4920;49.594;11.022;2022-11-20T10:13:27;2.80;9.20
9762;DHT22;4920;49.594;11.022;2022-11-20T10:16:08;2.70;9.70
9762;DHT22;4920;49.594;11.022;2022-11-20T10:18:48;2.70;21.70
9762;DHT22;4920;49.594;11.022;2022-11-20T10:21:28;2.60;22.40
9762;DHT22;4920;49.594;11.022;2022-11-20T10:26:56;2.60;44.00
9762;DHT22;4920;49.594;11.022;2022-11-20T10:29:32;2.70;63.50
9762;DHT22;4920;49.594;11.022;2022-11-20T10:32:07;2.80;72.20
9762;DHT22;4920;49.594;11.022;2022-11-20T10:34:46;2.80;64.40
9762;DHT22;4920;49.594;11.022;2022-11-20T10:37:19;2.90;58.00
9762;DHT22;4920;49.594;11.022;2022-11-20T10:39:54;2.90;74.10
9762;DHT22;4920;49.594;11.022;2022-11-20T10:42:30;3.00;85.80
9762;DHT22;4920;49.594;11.022;2022-11-20T10:45:09;3.00;93.30
9762;DHT22;4920;49.594;11.022;2022-11-20T10:47:39;3.20;97.40
9762;DHT22;4920;49.594;11.022;2022-11-20T10:50:11;3.20;96.90
9762;DHT22;4920;49.594;11.022;2022-11-20T10:52:55;3.20;99.80
9762;DHT22;4920;49.594;11.022;2022-11-20T10:55:32;3.30;97.50
9762;DHT22;4920;49.594;11.022;2022-11-20T10:58:07;3.20;78.40
9762;DHT22;4920;49.594;11.022;2022-11-20T11:00:38;3.20;79.90
9762;DHT22;4920;49.594;11.022;2022-11-20T11:03:20;3.10;80.00
9762;DHT22;4920;49.594;11.022;2022-11-20T11:05:53;3.10;80.00
9762;DHT22;4920;49.594;11.022;2022-11-20T11:08:23;3.00;66.10
9762;DHT22;4920;49.594;11.022;2022-11-20T11:10:57;3.00;77.50
9762;DHT22;4920;49.594;11.022;2022-11-20T11:13:27;2.90;88.70
9762;DHT22;4920;49.594;11.022;2022-11-20T11:15:56;2.90;98.70
9762;DHT22;4920;49.594;11.022;2022-11-20T11:18:27;3.00;99.90
9762;DHT22;4920;49.594;11.022;2022-11-20T11:20:57;3.10;99.90
9762;DHT22;4920;49.594;11.022;2022-11-20T11:23:31;3.30;99.90
9762;DHT22;4920;49.594;11.022;2022-11-20T11:26:01;3.50;99.90
9762;DHT22;4920;49.594;11.022;2022-11-20T11:28:29;3.80;99.90
9762;DHT22;4920;49.594;11.022;2022-11-20T11:30:58;4.00;99.90
9762;DHT22;4920;49.594;11.022;2022-11-20T11:33:29;4.20;99.90
9762;DHT22;4920;49.594;11.022;2022-11-20T11:36:00;4.40;99.90
9762;DHT22;4920;49.594;11.022;2022-11-20T11:38:32;4.60;99.90
9762;DHT22;4920;49.594;11.022;2022-11-20T11:41:02;4.80;99.90
9762;DHT22;4920;49.594;11.022;2022-11-20T11:43:33;5.00;99.90
9762;DHT22;4920;49.594;11.022;2022-11-20T11:46:31;5.00;99.90
9762;DHT22;4920;49.594;11.022;2022-11-20T11:49:10;5.00;99.90
9762;DHT22;4920;49.594;11.022;2022-11-20T11:52:01;5.00;98.00
9762;DHT22;4920;49.594;11.022;2022-11-20T11:54:34;5.00;99.90
9762;DHT22;4920;49.594;11.022;2022-11-20T11:57:09;5.10;99.90
9762;DHT22;4920;49.594;11.022;2022-11-20T11:59:53;5.30;99.90
9762;DHT22;4920;49.594;11.022;2022-11-20T12:02:32;5.50;99.90
9762;DHT22;4920;49.594;11.022;2022-11-20T12:05:12;5.70;99.90
9762;DHT22;4920;49.594;11.022;2022-11-20T12:07:44;5.70;50.80
9762;DHT22;4920;49.594;11.022;2022-11-20T12:10:22;5.60;27.80
9762;DHT22;4920;49.594;11.022;2022-11-20T12:12:54;5.40;1.00
9762;DHT22;4920;49.594;11.022;2022-11-20T12:15:30;5.20;1.00
9762;DHT22;4920;49.594;11.022;2022-11-20T12:17:58;5.10;1.00
9762;DHT22;4920;49.594;11.022;2022-11-20T12:20:31;5.00;1.00
9762;DHT22;4920;49.594;11.022;2022-11-20T12:23:06;5.00;1.00
9762;DHT22;4920;49.594;11.022;2022-11-20T12:25:36;5.10;1.00
9762;DHT22;4920;49.594;11.022;2022-11-20T12:28:27;5.00;1.00
9762;DHT22;4920;49.594;11.022;2022-11-20T12:31:24;5.00;1.00
9762;DHT22;4920;49.594;11.022;2022-11-20T12:34:06;5.00;1.00
9762;DHT22;4920;49.594;11.022;2022-11-20T12:36:45;5.00;1.00
9762;DHT22;4920;49.594;11.022;2022-11-20T12:39:35;5.00;1.00
9762;DHT22;4920;49.594;11.022;2022-11-20T12:42:13;5.00;1.00
9762;DHT22;4920;49.594;11.022;2022-11-20T12:45:52;5.10;1.00
9762;DHT22;4920;49.594;11.022;2022-11-20T12:48:55;5.30;1.00
9762;DHT22;4920;49.594;11.022;2022-11-20T12:54:41;5.50;1.00
9762;DHT22;4920;49.594;11.022;2022-11-20T12:57:18;5.60;1.00
9762;DHT22;4920;49.594;11.022;2022-11-20T13:00:02;5.60;1.00
9762;DHT22;4920;49.594;11.022;2022-11-20T13:02:41;5.60;1.00
9762;DHT22;4920;49.594;11.022;2022-11-20T13:05:19;5.60;1.00
9762;DHT22;4920;49.594;11.022;2022-11-20T13:07:51;5.60;1.00
9762;DHT22;4920;49.594;11.022;2022-11-20T13:10:26;5.60;1.00
9762;DHT22;4920;49.594;11.022;2022-11-20T13:13:03;5.60;1.00
9762;DHT22;4920;49.594;11.022;2022-11-20T13:15:47;5.50;1.00
9762;DHT22;4920;49.594;11.022;2022-11-20T13:18:19;5.40;1.00
9762;DHT22;4920;49.594;11.022;2022-11-20T13:20:47;5.30;1.00
9762;DHT22;4920;49.594;11.022;2022-11-20T13:23:26;5.20;1.00
9762;DHT22;4920;49.594;11.022;2022-11-20T13:26:15;5.10;1.00
9762;DHT22;4920;49.594;11.022;2022-11-20T13:28:45;5.00;1.00
9762;DHT22;4920;49.594;11.022;2022-11-20T13:31:30;4.90;1.00
9762;DHT22;4920;49.594;11.022;2022-11-20T13:34:00;5.00;1.00
9762;DHT22;4920;49.594;11.022;2022-11-20T13:36:30;5.00;1.00
9762;DHT22;4920;49.594;11.022;2022-11-20T13:38:59;4.90;1.00
9762;DHT22;4920;49.594;11.022;2022-11-20T13:41:30;4.90;1.00
9762;DHT22;4920;49.594;11.022;2022-11-20T13:44:09;4.90;1.00
9762;DHT22;4920;49.594;11.022;2022-11-20T13:46:40;4.80;1.00
9762;DHT22;4920;49.594;11.022;2022-11-20T13:49:16;4.80;1.00
9762;DHT22;4920;49.594;11.022;2022-11-20T13:51:47;4.80;1.00
9762;DHT22;4920;49.594;11.022;2022-11-20T13:54:51;4.70;1.00
9762;DHT22;4920;49.594;11.022;2022-11-20T13:57:44;4.70;7.60
9762;DHT22;4920;49.594;11.022;2022-11-20T14:00:16;4.70;1.00
9762;DHT22;4920;49.594;11.022;2022-11-20T14:02:53;4.70;3.00
9762;DHT22;4920;49.594;11.022;2022-11-20T14:05:27;4.70;1.30
9762;DHT22;4920;49.594;11.022;2022-11-20T14:08:27;4.60;10.90
9762;DHT22;4920;49.594;11.022;2022-11-20T14:11:06;4.60;13.80
9762;DHT22;4920;49.594;11.022;2022-11-20T14:13:36;4.60;16.10
9762;DHT22;4920;49.594;11.022;2022-11-20T14:16:04;4.60;17.00
9762;DHT22;4920;49.594;11.022;2022-11-20T14:18:35;4.60;17.40
9762;DHT22;4920;49.594;11.022;2022-11-20T14:21:03;4.60;28.40
9762;DHT22;4920;49.594;11.022;2022-11-20T14:23:32;4.60;29.80
9762;DHT22;4920;49.594;11.022;2022-11-20T14:26:03;4.50;28.90
9762;DHT22;4920;49.594;11.022;2022-11-20T14:28:31;4.50;13.30
9762;DHT22;4920;49.594;11.022;2022-11-20T14:31:02;4.40;17.60
9762;DHT22;4920;49.594;11.022;2022-11-20T14:33:32;4.30;18.30
9762;DHT22;4920;49.594;11.022;2022-11-20T14:36:01;4.30;24.50
9762;DHT22;4920;49.594;11.022;2022-11-20T14:38:32;4.20;32.80
9762;DHT22;4920;49.594;11.022;2022-11-20T14:41:07;4.20;40.20
9762;DHT22;4920;49.594;11.022;2022-11-20T14:43:36;4.20;41.10
9762;DHT22;4920;49.594;11.022;2022-11-20T14:46:08;4.20;39.00
9762;DHT22;4920;49.594;11.022;2022-11-20T14:48:39;4.20;43.20
9762;DHT22;4920;49.594;11.022;2022-11-20T14:51:09;4.20;47.30
9762;DHT22;4920;49.594;11.022;2022-11-20T14:53:38;4.30;51.90
9762;DHT22;4920;49.594;11.022;2022-11-20T14:56:08;4.30;51.80
9762;DHT22;4920;49.594;11.022;2022-11-20T14:58:36;4.30;54.50
9762;DHT22;4920;49.594;11.022;2022-11-20T15:01:07;4.20;51.50
9762;DHT22;4920;49.594;11.022;2022-11-20T15:03:40;4.20;56.70
9762;DHT22;4920;49.594;11.022;2022-11-20T15:06:11;4.20;55.10
9762;DHT22;4920;49.594;11.022;2022-11-20T15:08:50;4.20;55.00
9762;DHT22;4920;49.594;11.022;2022-11-20T15:11:23;4.20;59.10
9762;DHT22;4920;49.594;11.022;2022-11-20T15:13:54;4.10;68.70
9762;DHT22;4920;49.594;11.022;2022-11-20T15:16:24;4.20;68.50
9762;DHT22;4920;49.594;11.022;2022-11-20T15:18:54;4.20;81.40
9762;DHT22;4920;49.594;11.022;2022-11-20T15:21:23;4.20;84.40
9762;DHT22;4920;49.594;11.022;2022-11-20T15:23:51;4.10;85.80
9762;DHT22;4920;49.594;11.022;2022-11-20T15:26:24;4.20;90.40
9762;DHT22;4920;49.594;11.022;2022-11-20T15:28:53;4.20;92.30
9762;DHT22;4920;49.594;11.022;2022-11-20T15:31:24;4.20;94.20
9762;DHT22;4920;49.594;11.022;2022-11-20T15:33:52;4.20;95.00
9762;DHT22;4920;49.594;11.022;2022-11-20T15:36:21;4.20;96.70
9762;DHT22;4920;49.594;11.022;2022-11-20T15:38:49;4.20;98.80
9762;DHT22;4920;49.594;11.022;2022-11-20T15:41:17;4.20;99.80
9762;DHT22;4920;49.594;11.022;2022-11-20T15:43:45;4.20;99.90
9762;DHT22;4920;49.594;11.022;2022-11-20T15:46:15;4.20;99.90
9762;DHT22;4920;49.594;11.022;2022-11-20T15:48:50;4.20;99.90
9762;DHT22;4920;49.594;11.022;2022-11-20T15:51:24;4.20;99.90
9762;DHT22;4920;49.594;11.022;2022-11-20T15:53:54;4.20;99.90
9762;DHT22;4920;49.594;11.022;2022-11-20T15:56:23;4.10;99.90
9762;DHT22;4920;49.594;11.022;2022-11-20T15:58:52;4.00;99.90
9762;DHT22;4920;49.594;11.022;2022-11-20T16:01:21;4.00;99.90
9762;DHT22;4920;49.594;11.022;2022-11-20T16:03:51;4.00;99.90
9762;DHT22;4920;49.594;11.022;2022-11-20T16:06:19;4.00;99.90
9762;DHT22;4920;49.594;11.022;2022-11-20T16:08:47;4.00;99.90
9762;DHT22;4920;49.594;11.022;2022-11-20T16:11:17;3.90;99.90
9762;DHT22;4920;49.594;11.022;2022-11-20T16:13:45;3.90;99.90
9762;DHT22;4920;49.594;11.022;2022-11-20T16:16:42;3.90;99.90
9762;DHT22;4920;49.594;11.022;2022-11-20T16:19:12;3.80;99.90
9762;DHT22;4920;49.594;11.022;2022-11-20T16:21:42;3.80;99.90
9762;DHT22;4920;49.594;11.022;2022-11-20T16:24:12;3.80;99.90
9762;DHT22;4920;49.594;11.022;2022-11-20T16:26:41;3.80;99.90
9762;DHT22;4920;49.594;11.022;2022-11-20T16:29:09;3.70;99.90
9762;DHT22;4920;49.594;11.022;2022-11-20T16:31:38;3.70;99.90
9762;DHT22;4920;49.594;11.022;2022-11-20T16:34:07;3.60;99.90
9762;DHT22;4920;49.594;11.022;2022-11-20T16:36:51;3.60;99.90
9762;DHT22;4920;49.594;11.022;2022-11-20T16:39:19;3.60;99.90
9762;DHT22;4920;49.594;11.022;2022-11-20T16:41:50;3.60;99.90
9762;DHT22;4920;49.594;11.022;2022-11-20T16:44:18;3.70;99.90
9762;DHT22;4920;49.594;11.022;2022-11-20T16:46:47;3.70;99.90
9762;DHT22;4920;49.594;11.022;2022-11-20T16:49:16;3.70;99.90